Time;durP1;ratioP1;P1;durP2;ratioP2;P2;SDS_P1;SDS_P2;PMS_P1;PMS_P2;Temp;Humidity;BMP_temperature;BMP_pressure;BME280_temperature;BME280_humidity;BME280_pressure;Samples;Min_cycle;Max_cycle;Signal;HPM_P1;HPM_P2
2021/08/31 00:02:18;;;;;;;8.30;2.10;;;;;;;15.27;78.18;102562.03;4956764;28;20042;-55
2021/08/31 00:04:45;;;;;;;6.95;1.95;;;;;;;15.30;78.02;102561.38;4958073;28;20548;-55
2021/08/31 00:07:12;;;;;;;6.80;1.90;;;;;;;15.31;78.09;102562.19;4954048;28;20055;-57
2021/08/31 00:09:38;;;;;;;3.90;1.48;;;;;;;15.29;77.93;102559.72;4955183;28;20400;-60
2021/08/31 00:12:05;;;;;;;10.48;2.20;;;;;;;15.30;78.24;102554.97;4954757;28;20039;-56
2021/08/31 00:14:35;;;;;;;3.45;1.70;;;;;;;15.27;78.21;102557.25;4954173;28;20380;-59
2021/08/31 00:17:04;;;;;;;6.68;1.77;;;;;;;15.29;78.19;102558.91;4952849;28;20581;-59
2021/08/31 00:19:31;;;;;;;4.63;1.58;;;;;;;15.31;78.03;102551.00;4953244;28;20043;-57
2021/08/31 00:21:58;;;;;;;5.82;1.38;;;;;;;15.33;77.97;102560.69;4954331;28;20088;-61
2021/08/31 00:24:25;;;;;;;4.28;1.60;;;;;;;15.35;77.94;102563.16;4953665;28;20049;-59
2021/08/31 00:26:51;;;;;;;7.50;1.90;;;;;;;15.36;77.94;102565.59;4953961;28;20046;-56
2021/08/31 00:29:18;;;;;;;5.05;1.55;;;;;;;15.36;78.05;102560.03;4953742;28;20402;-64
2021/08/31 00:31:45;;;;;;;5.43;1.63;;;;;;;15.36;77.96;102570.38;4953669;28;20467;-59
2021/08/31 00:34:11;;;;;;;5.18;2.00;;;;;;;15.36;77.77;102567.56;4953474;28;20053;-57
2021/08/31 00:36:38;;;;;;;5.45;1.65;;;;;;;15.33;77.89;102562.69;4954367;28;20050;-61
2021/08/31 00:39:05;;;;;;;5.05;1.50;;;;;;;15.32;77.84;102561.03;4953426;28;20059;-61
2021/08/31 00:41:32;;;;;;;4.53;1.45;;;;;;;15.32;77.75;102563.81;4954163;28;20047;-56
2021/08/31 00:43:58;;;;;;;7.38;1.50;;;;;;;15.33;77.63;102562.69;4953509;28;20054;-62
2021/08/31 00:46:25;;;;;;;6.65;1.30;;;;;;;15.32;77.55;102558.25;4954260;28;20040;-57
2021/08/31 00:48:52;;;;;;;4.13;1.10;;;;;;;15.35;77.37;102563.16;4955007;28;20489;-60
2021/08/31 00:51:22;;;;;;;8.77;2.22;;;;;;;15.34;77.77;102562.34;4953366;28;20042;-62
2021/08/31 00:53:51;;;;;;;8.48;2.53;;;;;;;15.32;77.73;102564.66;4953307;28;20058;-57
2021/08/31 00:56:20;;;;;;;5.43;1.30;;;;;;;15.29;77.65;102559.72;4954421;28;20803;-56
2021/08/31 00:58:46;;;;;;;3.67;1.70;;;;;;;15.30;77.80;102571.72;4960012;28;20445;-58
2021/08/31 01:01:13;;;;;;;7.00;1.58;;;;;;;15.30;77.65;102566.13;4936786;28;20049;-58
2021/08/31 01:03:42;;;;;;;4.15;1.20;;;;;;;15.31;77.68;102568.59;4953330;28;20055;-60
2021/08/31 01:06:08;;;;;;;4.50;1.40;;;;;;;15.31;77.70;102567.75;4943608;28;20114;-59
2021/08/31 01:08:35;;;;;;;9.93;1.30;;;;;;;15.31;77.72;102573.34;4953635;28;20381;-56
2021/08/31 01:11:04;;;;;;;4.07;1.13;;;;;;;15.30;77.55;102564.16;4941870;28;20059;-59
2021/08/31 01:13:35;;;;;;;3.28;0.93;;;;;;;15.32;77.58;102569.41;4953666;28;20655;-60
2021/08/31 01:16:07;;;;;;;5.22;1.65;;;;;;;15.33;77.59;102579.44;4954638;28;20413;-58
2021/08/31 01:18:34;;;;;;;6.00;1.35;;;;;;;15.35;77.42;102577.13;4953586;28;20401;-57
2021/08/31 01:21:01;;;;;;;7.18;2.45;;;;;;;15.35;77.52;102579.91;4952848;28;20039;-59
2021/08/31 01:23:30;;;;;;;3.05;1.55;;;;;;;15.36;77.45;102581.53;4953183;28;20594;-58
2021/08/31 01:25:58;;;;;;;9.20;1.55;;;;;;;15.35;77.40;102580.72;4953142;28;20429;-52
2021/08/31 01:28:28;;;;;;;5.05;1.40;;;;;;;15.33;77.37;102576.63;4954060;28;20035;-59
2021/08/31 01:30:56;;;;;;;8.85;2.40;;;;;;;15.33;77.33;102577.44;4958566;28;20047;-53
2021/08/31 01:33:28;;;;;;;4.35;1.33;;;;;;;15.34;77.46;102578.25;4953525;28;20040;-60
2021/08/31 01:35:56;;;;;;;8.35;1.80;;;;;;;15.35;77.36;102579.91;4951979;28;20049;-61
2021/08/31 01:38:22;;;;;;;4.20;1.58;;;;;;;15.32;77.68;102577.78;4954236;28;20404;-60
2021/08/31 01:40:50;;;;;;;7.43;1.98;;;;;;;15.32;77.75;102581.41;4955097;28;20043;-61
2021/08/31 01:43:21;;;;;;;5.93;1.40;;;;;;;15.30;78.04;102583.72;4952528;28;20062;-62
2021/08/31 01:45:49;;;;;;;5.40;1.67;;;;;;;15.30;78.16;102578.13;4953701;28;20097;-57
2021/08/31 01:48:17;;;;;;;6.85;1.75;;;;;;;15.30;77.98;102582.88;4952877;28;20055;-55
2021/08/31 01:50:43;;;;;;;9.48;1.92;;;;;;;15.30;78.29;102588.47;4953486;28;20137;-60
2021/08/31 01:53:10;;;;;;;9.55;2.35;;;;;;;15.31;78.32;102585.31;4954181;28;20400;-59
2021/08/31 01:55:37;;;;;;;8.52;1.95;;;;;;;15.31;78.55;102582.53;4953129;28;20047;-59
2021/08/31 01:58:04;;;;;;;9.98;2.03;;;;;;;15.29;78.75;102589.59;4953473;28;20050;-58
2021/08/31 02:00:31;;;;;;;12.02;2.08;;;;;;;15.31;78.88;102590.09;4951833;28;20047;-57
2021/08/31 02:02:58;;;;;;;11.68;2.50;;;;;;;15.34;78.80;102600.59;4955508;28;20895;-56
2021/08/31 02:05:26;;;;;;;8.30;2.15;;;;;;;15.32;79.17;102600.94;4957401;28;20396;-59
2021/08/31 02:07:52;;;;;;;9.65;2.22;;;;;;;15.32;79.26;102600.09;4956213;28;20062;-59
2021/08/31 02:10:21;;;;;;;10.63;2.15;;;;;;;15.33;79.45;102605.34;4956160;28;20506;-56
2021/08/31 02:12:48;;;;;;;8.65;3.10;;;;;;;15.34;79.46;102597.78;4957030;28;20408;-61
2021/08/31 02:15:16;;;;;;;4.13;1.77;;;;;;;15.33;79.92;102604.53;4937999;28;20046;-57
2021/08/31 02:17:43;;;;;;;8.90;1.98;;;;;;;15.33;80.03;102593.38;4957770;28;20153;-57
2021/08/31 02:20:11;;;;;;;18.63;3.55;;;;;;;15.28;80.41;102594.34;4956779;28;20051;-58
2021/08/31 02:22:39;;;;;;;7.63;1.80;;;;;;;15.32;80.21;102589.75;4957408;28;20048;-59
2021/08/31 02:25:06;;;;;;;15.10;2.00;;;;;;;15.34;80.36;102595.00;4956022;28;20049;-58
2021/08/31 02:27:33;;;;;;;11.23;1.92;;;;;;;15.35;80.54;102596.66;4956683;28;20050;-57
2021/08/31 02:30:00;;;;;;;9.63;1.70;;;;;;;15.36;80.73;102601.88;4941228;28;20451;-57
2021/08/31 02:32:27;;;;;;;7.53;1.55;;;;;;;15.35;80.58;102597.47;4955051;28;20408;-56
2021/08/31 02:34:54;;;;;;;10.10;2.13;;;;;;;15.36;80.76;102598.28;4955771;28;20057;-59
2021/08/31 02:37:20;;;;;;;7.38;1.60;;;;;;;15.33;80.61;102598.97;4938722;28;20051;-55
2021/08/31 02:39:47;;;;;;;6.18;1.50;;;;;;;15.32;80.80;102597.31;4956195;28;20054;-57
2021/08/31 02:42:15;;;;;;;3.75;0.93;;;;;;;15.30;80.57;102599.63;4955334;28;20134;-58
2021/08/31 02:44:42;;;;;;;5.65;1.27;;;;;;;15.24;80.53;102602.59;4956953;28;20059;-61
2021/08/31 02:47:09;;;;;;;6.22;1.75;;;;;;;15.22;80.50;102599.28;4956930;28;20713;-58
2021/08/31 02:49:39;;;;;;;7.10;1.73;;;;;;;15.20;80.75;102607.19;4956284;28;20182;-58
2021/08/31 02:52:07;;;;;;;6.93;2.28;;;;;;;15.20;80.81;102600.78;4956412;28;20046;-57
2021/08/31 02:54:33;;;;;;;6.57;1.83;;;;;;;15.17;81.14;102599.47;4939114;28;20047;-60
2021/08/31 02:57:00;;;;;;;10.55;2.47;;;;;;;15.11;81.25;102600.81;4957132;28;20658;-59
2021/08/31 02:59:27;;;;;;;12.20;2.80;;;;;;;15.08;81.50;102595.06;4953502;28;20039;-59
2021/08/31 03:04:28;;;;;;;9.05;2.20;;;;;;;14.90;81.76;102602.66;4957575;28;20378;-55
2021/08/31 03:06:55;;;;;;;7.55;2.15;;;;;;;14.85;81.74;102611.16;4957655;28;20046;-61
2021/08/31 03:09:22;;;;;;;14.07;2.35;;;;;;;14.85;81.74;102600.00;4952918;28;20400;-60
2021/08/31 03:11:49;;;;;;;11.20;2.75;;;;;;;14.82;81.78;102614.63;4951732;28;20055;-59
2021/08/31 03:14:19;;;;;;;9.95;2.75;;;;;;;14.76;81.87;102606.75;4944721;28;20062;-62
2021/08/31 03:16:46;;;;;;;10.35;2.70;;;;;;;14.73;82.02;102619.38;4945909;28;20051;-60
2021/08/31 03:19:14;;;;;;;5.63;3.38;;;;;;;14.68;82.15;102616.75;4945445;28;20129;-57
2021/08/31 03:21:41;;;;;;;5.75;1.88;;;;;;;14.65;81.99;102620.19;4953089;28;20125;-61
2021/08/31 03:24:08;;;;;;;9.43;1.60;;;;;;;14.57;82.46;102615.44;4951582;28;20047;-59
2021/08/31 03:26:35;;;;;;;14.85;2.28;;;;;;;14.51;82.84;102619.50;4946400;28;20102;-59
2021/08/31 03:29:02;;;;;;;6.15;1.80;;;;;;;14.45;82.89;102616.09;4950353;28;20046;-56
2021/08/31 03:31:29;;;;;;;7.40;2.78;;;;;;;14.46;82.89;102614.09;4949941;28;20047;-59
2021/08/31 03:33:56;;;;;;;3.13;1.75;;;;;;;14.49;82.75;102614.28;4951402;28;20046;-57
2021/08/31 03:36:22;;;;;;;10.02;2.97;;;;;;;14.50;82.59;102626.25;4953706;28;20058;-56
2021/08/31 03:38:49;;;;;;;4.75;2.15;;;;;;;14.53;82.50;102625.59;4945144;28;20408;-60
2021/08/31 03:41:16;;;;;;;4.88;1.83;;;;;;;14.52;82.84;102629.53;4949266;28;20043;-61
2021/08/31 03:43:42;;;;;;;8.48;2.25;;;;;;;14.48;82.78;102617.41;4951768;28;20047;-60
2021/08/31 03:46:09;;;;;;;9.93;2.38;;;;;;;14.44;82.89;102621.97;4952332;28;20134;-59
2021/08/31 03:48:36;;;;;;;4.57;1.92;;;;;;;14.43;83.07;102620.31;4946433;28;20039;-59
2021/08/31 03:51:03;;;;;;;8.23;2.10;;;;;;;14.36;83.38;102626.38;4948897;28;20054;-58
2021/08/31 03:53:30;;;;;;;7.10;2.03;;;;;;;14.33;83.43;102615.06;4948543;28;20047;-57
2021/08/31 03:55:56;;;;;;;5.18;2.00;;;;;;;14.29;83.56;102620.47;4950553;28;20377;-63
2021/08/31 03:58:24;;;;;;;10.18;2.40;;;;;;;14.24;83.68;102619.78;4950207;28;20054;-54
2021/08/31 04:00:50;;;;;;;6.80;2.50;;;;;;;14.20;83.83;102624.34;4948371;28;20051;-58
2021/08/31 04:03:18;;;;;;;15.40;2.92;;;;;;;14.16;83.98;102626.16;4952409;28;20039;-54
2021/08/31 04:05:45;;;;;;;11.48;2.42;;;;;;;14.17;83.69;102627.78;4944943;28;20051;-61
2021/08/31 04:08:11;;;;;;;8.73;2.50;;;;;;;14.18;83.81;102621.06;4954522;28;20121;-63
2021/08/31 04:10:38;;;;;;;8.82;2.25;;;;;;;14.22;83.61;102630.41;4944584;28;20043;-62
2021/08/31 04:13:10;;;;;;;5.80;2.20;;;;;;;14.23;83.69;102632.88;4953391;28;20034;-56
2021/08/31 04:15:37;;;;;;;;;;;;;;;14.13;84.04;102618.44;4947588;28;20059;-61
2021/08/31 04:18:04;;;;;;;4.05;1.70;;;;;;;14.12;83.71;102622.38;4948506;28;19929;-54
2021/08/31 04:20:31;;;;;;;5.65;2.00;;;;;;;14.12;83.60;102622.38;4951255;28;20058;-63
2021/08/31 04:22:57;;;;;;;11.30;3.15;;;;;;;14.14;83.52;102636.81;4946966;28;20492;-61
2021/08/31 04:25:24;;;;;;;2.78;1.60;;;;;;;14.16;83.49;102631.72;4932605;28;20400;-59
2021/08/31 04:27:51;;;;;;;6.38;1.80;;;;;;;14.17;83.15;102633.34;4950356;28;20046;-63
2021/08/31 04:30:18;;;;;;;11.27;1.77;;;;;;;14.15;83.20;102635.66;4950832;28;20046;-55
2021/08/31 04:32:46;;;;;;;12.20;2.58;;;;;;;14.13;83.24;102629.59;4951319;28;20046;-62
2021/08/31 04:35:12;;;;;;;5.07;1.55;;;;;;;14.13;83.09;102637.94;4936363;28;20070;-58
2021/08/31 04:37:39;;;;;;;6.07;2.47;;;;;;;14.11;82.98;102635.47;4947521;28;20043;-59
2021/08/31 04:40:06;;;;;;;6.75;1.70;;;;;;;14.13;82.88;102641.56;4951386;28;20074;-59
2021/08/31 04:42:33;;;;;;;7.28;2.45;;;;;;;14.17;82.82;102633.34;4935609;28;20043;-57
2021/08/31 04:45:00;;;;;;;7.22;1.70;;;;;;;14.18;82.67;102641.41;4938743;28;20129;-54
2021/08/31 04:47:27;;;;;;;15.88;3.40;;;;;;;14.17;82.72;102634.19;4943300;28;20591;-57
2021/08/31 04:49:53;;;;;;;4.65;1.63;;;;;;;14.15;82.28;102636.47;4949436;28;20046;-57
2021/08/31 04:52:20;;;;;;;7.03;1.20;;;;;;;14.13;82.17;102637.94;4950561;28;20695;-62
2021/08/31 04:54:47;;;;;;;7.72;1.85;;;;;;;14.13;82.17;102638.78;4952005;28;20097;-57
2021/08/31 04:57:18;;;;;;;9.63;1.75;;;;;;;14.19;82.15;102640.25;4946499;28;20054;-62
2021/08/31 04:59:44;;;;;;;5.97;1.30;;;;;;;14.22;81.99;102641.56;4933857;28;20129;-57
2021/08/31 05:02:11;;;;;;;7.97;1.42;;;;;;;14.23;82.02;102634.84;4935094;28;20463;-56
2021/08/31 05:04:38;;;;;;;6.85;1.80;;;;;;;14.24;81.92;102639.28;4935000;28;20480;-55
2021/08/31 05:07:06;;;;;;;3.22;1.38;;;;;;;14.25;81.89;102638.94;4950976;28;20062;-63
2021/08/31 05:09:33;;;;;;;3.38;1.42;;;;;;;14.25;81.98;102647.31;4947554;28;20039;-55
2021/08/31 05:12:00;;;;;;;4.63;2.03;;;;;;;14.26;81.74;102635.03;4949832;28;20051;-58
2021/08/31 05:14:26;;;;;;;4.80;1.30;;;;;;;14.24;81.61;102642.06;4936964;28;20122;-61
2021/08/31 05:16:53;;;;;;;7.25;1.10;;;;;;;14.21;81.43;102645.50;4948003;28;20822;-59
2021/08/31 05:19:20;;;;;;;7.03;1.10;;;;;;;14.19;81.39;102642.22;4950006;28;20047;-54
2021/08/31 05:21:49;;;;;;;4.38;0.82;;;;;;;14.15;81.25;102646.78;4933826;28;20055;-53
2021/08/31 05:24:17;;;;;;;6.53;1.10;;;;;;;14.15;81.10;102644.00;4946036;28;20035;-54
2021/08/31 05:26:44;;;;;;;2.85;1.23;;;;;;;14.16;81.10;102654.00;4945034;28;20042;-53
2021/08/31 05:29:10;;;;;;;8.02;3.40;;;;;;;14.18;81.20;102658.13;4949117;28;20051;-53
2021/08/31 05:31:38;;;;;;;2.42;1.00;;;;;;;14.17;81.04;102661.22;4952999;28;20049;-54
2021/08/31 05:34:04;;;;;;;3.30;0.98;;;;;;;14.16;80.92;102660.41;4935377;28;20047;-55
2021/08/31 05:36:31;;;;;;;5.40;1.13;;;;;;;14.17;80.99;102664.00;4948022;28;20047;-56
2021/08/31 05:38:58;;;;;;;6.10;1.38;;;;;;;14.17;80.96;102666.78;4949232;28;20039;-56
2021/08/31 05:41:25;;;;;;;3.97;1.20;;;;;;;14.16;80.77;102670.72;4948986;28;20063;-57
2021/08/31 05:43:52;;;;;;;6.40;1.63;;;;;;;14.14;80.80;102673.03;4949667;28;20054;-57
2021/08/31 05:46:18;;;;;;;1.52;1.00;;;;;;;14.13;80.54;102666.63;4949916;28;20047;-57
2021/08/31 05:48:45;;;;;;;8.38;1.30;;;;;;;14.11;80.62;102674.47;4951599;28;20125;-51
2021/08/31 05:51:13;;;;;;;6.90;1.20;;;;;;;14.10;80.44;102672.84;4932862;28;20049;-52
2021/08/31 05:53:40;;;;;;;8.57;2.55;;;;;;;14.07;80.35;102670.69;4949417;28;20189;-52
2021/08/31 05:56:06;;;;;;;3.38;1.00;;;;;;;14.05;80.49;102675.78;4951137;28;20047;-60
2021/08/31 05:58:33;;;;;;;3.15;1.17;;;;;;;14.03;80.54;102681.66;4946481;28;20495;-63
2021/08/31 06:01:00;;;;;;;2.20;0.80;;;;;;;14.09;80.50;102681.50;4934185;28;20062;-56
2021/08/31 06:03:27;;;;;;;4.60;1.20;;;;;;;14.10;80.38;102685.94;4948924;28;20039;-53
2021/08/31 06:05:54;;;;;;;3.92;1.00;;;;;;;14.14;80.42;102675.81;4920405;28;20468;-56
2021/08/31 06:08:21;;;;;;;3.47;0.90;;;;;;;14.15;80.59;102674.66;4949326;28;20041;-57
2021/08/31 06:10:48;;;;;;;3.85;1.27;;;;;;;14.10;80.46;102683.16;4954392;28;20054;-57
2021/08/31 06:13:15;;;;;;;6.97;1.02;;;;;;;14.07;80.68;102689.34;4946462;28;20042;-53
2021/08/31 06:15:41;;;;;;;5.80;1.00;;;;;;;13.97;80.83;102690.47;4947604;28;20040;-54
2021/08/31 06:18:08;;;;;;;8.43;3.00;;;;;;;13.90;81.19;102696.50;4947581;28;20513;-54
2021/08/31 06:20:36;;;;;;;7.25;1.17;;;;;;;13.85;81.45;102698.59;4950272;28;20047;-55
2021/08/31 06:23:03;;;;;;;1.73;1.05;;;;;;;13.79;81.80;102700.69;4945060;28;20121;-60
2021/08/31 06:25:30;;;;;;;2.80;1.15;;;;;;;13.79;81.69;102705.47;4946962;28;20043;-61
2021/08/31 06:27:56;;;;;;;4.82;1.27;;;;;;;13.82;81.86;102708.41;4934638;28;20568;-62
2021/08/31 06:30:23;;;;;;;2.33;1.00;;;;;;;13.84;81.87;102708.94;4949771;28;21876;-58
2021/08/31 06:32:50;;;;;;;7.82;1.48;;;;;;;13.89;82.02;102717.16;4947454;28;20444;-59
2021/08/31 06:35:17;;;;;;;8.35;2.22;;;;;;;13.94;81.85;102713.41;4948805;28;20043;-57
2021/08/31 06:37:43;;;;;;;3.70;0.98;;;;;;;14.01;81.88;102716.53;4951630;28;20043;-61
2021/08/31 06:40:11;;;;;;;3.38;1.45;;;;;;;14.04;81.76;102716.72;4950359;28;20062;-55
2021/08/31 06:42:38;;;;;;;6.43;1.50;;;;;;;14.09;81.66;102715.75;4944608;28;20051;-61
2021/08/31 06:45:05;;;;;;;5.93;1.08;;;;;;;14.10;81.49;102708.22;4936452;28;20741;-57
2021/08/31 06:47:32;;;;;;;4.13;1.40;;;;;;;14.11;81.61;102715.44;4948096;28;20485;-55
2021/08/31 06:49:59;;;;;;;4.13;1.13;;;;;;;14.10;81.47;102711.84;4953660;28;20047;-62
2021/08/31 06:52:25;;;;;;;7.60;1.38;;;;;;;14.11;81.25;102709.88;4953470;28;20044;-62
2021/08/31 06:54:52;;;;;;;3.05;1.02;;;;;;;14.13;81.12;102713.16;4938376;28;20420;-56
2021/08/31 06:57:20;;;;;;;3.38;1.00;;;;;;;14.13;80.99;102715.94;4945884;28;20130;-56
2021/08/31 06:59:46;;;;;;;3.78;1.27;;;;;;;14.14;80.79;102712.81;4951740;28;20090;-53
2021/08/31 07:02:13;;;;;;;3.05;1.58;;;;;;;14.15;80.88;102713.66;4950633;28;20050;-55
2021/08/31 07:04:40;;;;;;;4.35;1.38;;;;;;;14.17;80.65;102716.91;4951710;28;20392;-54
2021/08/31 07:07:06;;;;;;;4.90;1.80;;;;;;;14.16;80.56;102716.13;4949842;28;20058;-54
2021/08/31 07:09:33;;;;;;;5.85;1.65;;;;;;;14.18;80.57;102724.97;4952728;28;20047;-56
2021/08/31 07:12:00;;;;;;;7.22;1.25;;;;;;;14.19;80.41;102720.22;4954398;28;20069;-57
2021/08/31 07:14:27;;;;;;;4.50;1.10;;;;;;;14.25;80.44;102718.91;4956855;28;20049;-55
2021/08/31 07:16:54;;;;;;;2.10;1.50;;;;;;;14.28;80.28;102718.28;4955839;28;20058;-55
2021/08/31 07:19:20;;;;;;;4.78;1.40;;;;;;;14.31;80.06;102723.22;4953505;28;20034;-53
2021/08/31 07:21:47;;;;;;;5.40;1.83;;;;;;;14.32;79.86;102719.31;4957380;28;20053;-55
2021/08/31 07:24:14;;;;;;;2.45;1.60;;;;;;;14.33;79.85;102726.53;4957448;28;20130;-57
2021/08/31 07:26:41;;;;;;;4.32;1.65;;;;;;;14.31;79.52;102732.44;4958129;28;20043;-54
2021/08/31 07:29:07;;;;;;;8.07;1.90;;;;;;;14.32;79.73;102731.25;4956744;28;20796;-59
2021/08/31 07:31:34;;;;;;;3.20;1.40;;;;;;;14.34;79.50;102736.53;4954943;28;20441;-55
2021/08/31 07:34:01;;;;;;;2.33;1.17;;;;;;;14.32;79.45;102733.25;4954887;28;20039;-59
2021/08/31 07:36:30;;;;;;;5.05;1.50;;;;;;;14.33;79.36;102726.53;4955383;28;20094;-58
2021/08/31 07:38:58;;;;;;;5.82;1.60;;;;;;;14.33;79.29;102732.09;4956354;28;20714;-56
2021/08/31 07:41:27;;;;;;;3.20;1.75;;;;;;;14.33;79.21;102737.66;4957017;28;20035;-60
2021/08/31 07:43:54;;;;;;;7.18;1.73;;;;;;;14.33;78.93;102738.50;4956880;28;20125;-57
2021/08/31 07:46:21;;;;;;;2.70;1.48;;;;;;;14.35;79.15;102735.41;4955654;28;20440;-53
2021/08/31 07:48:48;;;;;;;4.47;1.40;;;;;;;14.33;78.85;102740.44;4941576;28;20874;-63
2021/08/31 07:51:15;;;;;;;5.80;1.63;;;;;;;14.34;78.91;102739.31;4952000;28;20736;-61
2021/08/31 07:53:42;;;;;;;2.03;1.60;;;;;;;14.36;78.82;102743.44;4953991;28;20510;-59
2021/08/31 07:56:09;;;;;;;6.15;2.60;;;;;;;14.35;78.82;102749.34;4952904;28;20039;-60
2021/08/31 07:58:36;;;;;;;4.40;2.35;;;;;;;14.37;78.59;102750.66;4952312;28;20049;-58
2021/08/31 08:01:04;;;;;;;3.85;2.55;;;;;;;14.38;78.61;102734.72;4951538;28;20043;-53
2021/08/31 08:03:32;;;;;;;5.28;2.33;;;;;;;14.42;78.49;102747.72;4954342;28;20038;-57
2021/08/31 08:05:59;;;;;;;6.88;2.60;;;;;;;14.44;77.97;102745.44;4954100;28;20057;-53
2021/08/31 08:08:26;;;;;;;5.35;2.35;;;;;;;14.42;76.92;102744.09;4936649;28;20061;-56
2021/08/31 08:10:53;;;;;;;6.97;2.22;;;;;;;14.42;76.76;102746.88;4953209;28;20129;-52
2021/08/31 08:13:20;;;;;;;4.90;2.33;;;;;;;14.40;76.13;102744.41;4954501;28;20062;-56
2021/08/31 08:15:47;;;;;;;5.75;2.28;;;;;;;14.47;76.00;102760.69;4954655;28;21869;-59
2021/08/31 08:18:15;;;;;;;3.65;1.90;;;;;;;14.48;75.25;102756.75;4953598;28;20039;-56
2021/08/31 08:20:43;;;;;;;2.95;1.90;;;;;;;14.48;75.24;102751.97;4954113;28;20755;-57
2021/08/31 08:23:12;;;;;;;7.95;2.42;;;;;;;14.50;74.97;102754.47;4953184;28;20043;-54
2021/08/31 08:25:40;;;;;;;4.97;1.95;;;;;;;14.53;74.87;102759.41;4954552;28;20050;-54
2021/08/31 08:28:20;;;;;;;6.82;2.28;;;;;;;14.57;74.58;102760.38;4953083;28;20047;-56
2021/08/31 08:30:47;;;;;;;5.00;1.95;;;;;;;14.60;74.42;102751.38;4942446;28;20053;-54
2021/08/31 08:33:13;;;;;;;9.52;2.22;;;;;;;14.59;73.97;102761.69;4937779;28;20069;-53
2021/08/31 08:35:40;;;;;;;6.95;2.38;;;;;;;14.67;74.18;102754.50;4954974;28;20057;-56
2021/08/31 08:38:07;;;;;;;9.30;2.20;;;;;;;14.76;73.87;102763.72;4951796;28;20503;-56
2021/08/31 08:40:35;;;;;;;10.90;2.67;;;;;;;14.75;73.31;102762.06;4954149;28;20093;-59
2021/08/31 08:43:06;;;;;;;5.43;1.95;;;;;;;14.78;72.90;102764.19;4955217;28;20041;-57
2021/08/31 08:45:34;;;;;;;5.57;2.72;;;;;;;14.87;72.82;102764.22;4951552;28;20129;-61
2021/08/31 08:48:00;;;;;;;5.97;2.38;;;;;;;14.91;72.76;102774.41;4952236;28;20054;-62
2021/08/31 08:50:28;;;;;;;5.80;2.75;;;;;;;14.98;72.66;102771.16;4943704;28;20186;-59
2021/08/31 08:52:55;;;;;;;3.42;2.33;;;;;;;15.04;72.29;102781.81;4950008;28;20050;-56
2021/08/31 08:55:25;;;;;;;5.75;2.45;;;;;;;15.06;71.99;102779.50;4952496;28;21968;-58
2021/08/31 08:57:52;;;;;;;5.28;2.30;;;;;;;15.08;71.45;102774.44;4951914;28;20051;-57
2021/08/31 09:00:20;;;;;;;5.18;2.28;;;;;;;15.13;71.42;102785.44;4950713;28;20043;-58
2021/08/31 09:02:47;;;;;;;4.03;1.98;;;;;;;15.18;71.43;102778.88;4954055;28;20058;-55
2021/08/31 09:05:32;;;;;;;5.53;2.00;;;;;;;15.23;70.25;102785.13;4951920;28;20043;-57
2021/08/31 09:08:06;;;;;;;3.25;1.80;;;;;;;15.23;70.01;102782.31;4936415;28;20049;-57
2021/08/31 09:10:34;;;;;;;5.57;2.00;;;;;;;15.25;70.83;102787.56;4951796;28;20054;-58
2021/08/31 09:13:01;;;;;;;8.27;2.80;;;;;;;15.26;70.17;102797.59;4950298;28;20078;-58
2021/08/31 09:15:37;;;;;;;5.80;1.45;;;;;;;15.28;68.88;102792.50;4952564;28;20551;-55
2021/08/31 09:18:07;;;;;;;3.53;1.63;;;;;;;15.37;70.02;102787.75;4950710;28;20170;-63
2021/08/31 09:20:39;;;;;;;5.32;2.28;;;;;;;15.49;70.13;102792.72;4937344;28;20441;-56
2021/08/31 09:23:09;;;;;;;3.78;2.40;;;;;;;15.58;69.83;102801.91;4951004;28;20038;-56
2021/08/31 09:25:41;;;;;;;6.70;2.30;;;;;;;15.66;69.13;102799.09;4950615;28;20058;-60
2021/08/31 09:28:28;;;;;;;5.90;1.88;;;;;;;15.78;68.85;102804.81;4952059;28;20085;-58
2021/08/31 09:31:04;;;;;;;3.75;2.05;;;;;;;15.80;68.18;102804.50;4951693;28;20043;-56
2021/08/31 09:33:39;;;;;;;5.32;2.00;;;;;;;15.81;68.80;102800.53;4952494;28;20039;-56
2021/08/31 09:36:10;;;;;;;3.30;2.13;;;;;;;15.82;68.07;102807.78;4950799;28;20060;-60
2021/08/31 09:38:47;;;;;;;8.63;2.37;;;;;;;15.76;68.27;102820.28;4951930;28;20101;-60
2021/08/31 09:41:35;;;;;;;7.32;2.13;;;;;;;15.78;67.77;102824.38;4953083;28;20047;-56
2021/08/31 09:44:08;;;;;;;5.60;1.90;;;;;;;15.83;68.85;102827.00;4956784;28;20408;-58
2021/08/31 09:47:07;;;;;;;4.78;2.22;;;;;;;15.84;68.43;102822.25;4951472;28;20043;-56
2021/08/31 09:49:40;;;;;;;6.40;2.58;;;;;;;15.87;68.65;102827.16;4910083;28;20066;-59
2021/08/31 09:52:10;;;;;;;7.72;2.60;;;;;;;15.89;68.79;102824.84;4951327;28;20392;-55
2021/08/31 09:54:45;;;;;;;8.10;2.20;;;;;;;15.93;68.31;102825.03;4951659;28;20050;-60
2021/08/31 09:57:39;;;;;;;11.38;2.88;;;;;;;15.93;67.67;102831.44;4951125;28;20063;-56
2021/08/31 10:00:12;;;;;;;3.45;2.10;;;;;;;15.93;67.13;102830.63;4938498;28;20082;-60
2021/08/31 10:02:42;;;;;;;6.53;2.28;;;;;;;15.83;67.73;102832.59;4955180;28;20058;-61
2021/08/31 10:05:09;;;;;;;4.93;1.92;;;;;;;15.77;67.78;102835.88;4951051;28;20047;-56
2021/08/31 10:07:37;;;;;;;13.98;3.72;;;;;;;15.71;67.74;102832.44;4950790;28;20043;-61
2021/08/31 10:10:07;;;;;;;5.25;2.80;;;;;;;15.59;67.17;102839.84;4949624;28;20066;-57
2021/08/31 10:12:35;;;;;;;4.70;2.25;;;;;;;15.52;67.30;102843.13;4951773;28;20039;-54
2021/08/31 10:15:02;;;;;;;4.40;2.00;;;;;;;15.49;67.22;102848.56;4949814;28;20070;-56
2021/08/31 10:17:29;;;;;;;7.07;2.10;;;;;;;15.47;66.83;102857.25;4950311;28;20138;-56
2021/08/31 10:20:02;;;;;;;5.25;2.03;;;;;;;15.35;65.63;102842.25;4951580;28;20126;-55
2021/08/31 10:22:31;;;;;;;5.05;2.38;;;;;;;15.34;66.29;102851.75;4950227;28;20061;-61
2021/08/31 10:24:58;;;;;;;6.47;2.55;;;;;;;15.46;66.41;102849.19;4953224;28;20058;-59
2021/08/31 10:27:38;;;;;;;9.23;3.60;;;;;;;15.50;64.88;102844.59;4954155;28;20046;-56
2021/08/31 10:30:20;;;;;;;7.35;2.50;;;;;;;15.50;64.28;102845.41;4954845;28;20039;-57
2021/08/31 10:32:49;;;;;;;5.10;1.85;;;;;;;15.48;64.87;102853.31;4953455;28;21589;-56
2021/08/31 10:35:31;;;;;;;5.07;1.95;;;;;;;15.52;64.94;102853.44;4959768;28;20750;-57
2021/08/31 10:38:00;;;;;;;4.75;2.13;;;;;;;15.62;65.32;102842.00;4954972;28;21143;-63
2021/08/31 10:40:29;;;;;;;7.45;2.55;;;;;;;15.71;64.84;102849.19;4949217;28;20500;-59
2021/08/31 10:42:58;;;;;;;7.07;2.60;;;;;;;15.80;65.04;102843.63;4953954;28;20134;-61
2021/08/31 10:45:24;;;;;;;5.75;2.45;;;;;;;15.89;64.97;102847.19;4953616;28;20078;-57
2021/08/31 10:47:52;;;;;;;3.92;1.80;;;;;;;16.00;64.58;102853.28;4953408;28;20471;-59
2021/08/31 10:50:30;;;;;;;11.10;2.97;;;;;;;16.04;63.58;102846.72;4958373;28;20038;-54
2021/08/31 10:53:04;;;;;;;3.85;2.00;;;;;;;16.07;63.45;102851.59;4946674;28;20053;-61
2021/08/31 10:55:34;;;;;;;5.10;1.83;;;;;;;16.03;63.28;102853.44;4950770;28;20121;-59
2021/08/31 10:58:08;;;;;;;2.17;1.63;;;;;;;16.02;63.40;102854.59;4953679;28;20047;-58
2021/08/31 11:00:41;;;;;;;3.28;2.05;;;;;;;16.16;62.81;102852.44;4954313;28;20042;-57
2021/08/31 11:03:08;;;;;;;6.22;2.60;;;;;;;16.30;63.29;102861.44;4954261;28;20046;-54
2021/08/31 11:05:35;;;;;;;2.80;1.85;;;;;;;16.41;63.08;102857.13;4953878;28;20125;-57
2021/08/31 11:08:02;;;;;;;4.60;1.98;;;;;;;16.49;62.74;102854.66;4954336;28;20134;-60
2021/08/31 11:10:32;;;;;;;6.85;2.53;;;;;;;16.49;62.19;102865.81;4953807;28;20411;-58
2021/08/31 11:13:21;;;;;;;9.13;3.03;;;;;;;16.60;61.54;102855.97;4958927;28;20535;-58
2021/08/31 11:15:49;;;;;;;3.38;1.90;;;;;;;16.70;62.22;102849.97;4938530;28;20071;-57
2021/08/31 11:18:19;;;;;;;7.95;2.33;;;;;;;16.67;61.17;102854.28;4953422;28;20047;-60
2021/08/31 11:20:46;;;;;;;6.65;2.35;;;;;;;16.64;61.17;102857.75;4954088;28;20078;-57
2021/08/31 11:23:19;;;;;;;2.92;1.80;;;;;;;16.56;60.52;102849.38;4954312;28;20124;-57
2021/08/31 11:25:54;;;;;;;2.90;1.90;;;;;;;16.59;59.99;102854.31;4953662;28;20046;-61
2021/08/31 11:28:23;;;;;;;6.13;2.17;;;;;;;16.70;60.83;102849.97;4954543;28;20038;-59
2021/08/31 11:30:55;;;;;;;6.47;2.15;;;;;;;16.81;60.74;102851.25;4953582;28;20517;-60
2021/08/31 11:33:25;;;;;;;;;;;;;;;16.88;59.89;102846.78;4955123;28;20102;-61